createdAt,value
2023-03-26T00:01:12.438Z,9.61
2023-03-26T00:03:40.295Z,9.56
2023-03-26T00:06:10.059Z,9.41
2023-03-26T00:08:38.256Z,9.32
2023-03-26T00:11:06.109Z,9.43
2023-03-26T00:13:33.231Z,9.15
2023-03-26T00:16:00.184Z,9.29
2023-03-26T00:18:26.833Z,9.20
2023-03-26T00:20:54.488Z,9.75
2023-03-26T00:23:20.859Z,9.44
2023-03-26T00:25:49.155Z,9.41
2023-03-26T00:28:15.858Z,9.33
2023-03-26T00:30:42.317Z,9.84
2023-03-26T00:33:09.063Z,9.55
2023-03-26T00:35:36.189Z,9.68
2023-03-26T00:38:04.362Z,9.60
2023-03-26T00:40:30.785Z,9.38
2023-03-26T00:42:57.247Z,9.55
2023-03-26T00:45:23.919Z,9.30
2023-03-26T00:47:50.403Z,9.52
2023-03-26T00:50:16.784Z,9.50
2023-03-26T00:52:43.565Z,9.55
2023-03-26T00:55:11.957Z,9.46
2023-03-26T00:57:38.614Z,9.28
2023-03-26T01:00:07.774Z,9.24
2023-03-26T01:02:34.208Z,9.36
2023-03-26T01:05:00.674Z,9.51
2023-03-26T01:07:27.126Z,9.46
2023-03-26T01:09:54.937Z,9.36
2023-03-26T01:12:25.640Z,9.54
2023-03-26T01:14:54.500Z,9.24
2023-03-26T01:17:22.770Z,9.31
2023-03-26T01:19:53.234Z,9.36
2023-03-26T01:22:21.568Z,9.44
2023-03-26T01:24:50.159Z,9.43
2023-03-26T01:27:25.514Z,9.42
2023-03-26T01:29:54.670Z,9.37
2023-03-26T01:32:40.350Z,9.19
2023-03-26T01:35:20.812Z,8.91
2023-03-26T01:38:00.915Z,9.35
2023-03-26T01:40:34.921Z,9.35
2023-03-26T01:43:10.606Z,9.39
2023-03-26T01:45:41.849Z,9.72
2023-03-26T01:48:08.609Z,9.64
2023-03-26T01:50:35.144Z,9.15
2023-03-26T01:53:01.701Z,9.51
2023-03-26T01:55:38.150Z,9.51
2023-03-26T01:58:16.620Z,9.57
2023-03-26T02:00:51.126Z,9.42
2023-03-26T02:03:26.502Z,9.51
2023-03-26T02:05:57.214Z,9.43
2023-03-26T02:08:29.374Z,9.27
2023-03-26T02:10:59.454Z,9.25
2023-03-26T02:13:26.155Z,9.03
2023-03-26T02:15:58.129Z,8.87
2023-03-26T02:18:25.165Z,8.99
2023-03-26T02:20:52.207Z,8.96
2023-03-26T02:23:19.593Z,8.79
2023-03-26T02:25:46.250Z,8.86
2023-03-26T02:28:13.934Z,8.46
2023-03-26T02:30:40.285Z,8.82
2023-03-26T02:33:06.675Z,8.75
2023-03-26T02:35:33.166Z,8.81
2023-03-26T02:37:59.611Z,9.04
2023-03-26T02:40:26.056Z,8.96
2023-03-26T02:42:52.424Z,8.74
2023-03-26T02:45:20.520Z,8.82
2023-03-26T02:47:46.885Z,8.87
2023-03-26T02:50:13.278Z,9.31
2023-03-26T02:52:39.627Z,9.14
2023-03-26T02:55:06.321Z,9.21
2023-03-26T02:57:32.680Z,9.08
2023-03-26T02:59:59.038Z,9.36
2023-03-26T03:02:26.771Z,9.21
2023-03-26T03:04:53.175Z,9.66
2023-03-26T03:07:19.537Z,9.56
2023-03-26T03:09:45.903Z,9.34
2023-03-26T03:12:12.241Z,9.44
2023-03-26T03:14:38.592Z,9.64
2023-03-26T03:17:05.031Z,9.43
2023-03-26T03:19:32.731Z,9.16
2023-03-26T03:21:59.101Z,9.18
2023-03-26T03:24:25.484Z,9.07
2023-03-26T03:26:51.839Z,9.16
2023-03-26T03:29:18.206Z,8.91
2023-03-26T03:31:44.570Z,8.81
2023-03-26T03:34:10.999Z,8.64
2023-03-26T03:36:38.754Z,8.75
2023-03-26T03:39:05.231Z,8.67
2023-03-26T03:41:31.700Z,8.52
2023-03-26T03:43:58.061Z,8.78
2023-03-26T03:46:24.560Z,8.25
2023-03-26T03:48:50.944Z,8.72
2023-03-26T03:51:17.324Z,8.86
2023-03-26T03:53:45.034Z,8.83
2023-03-26T03:56:11.538Z,8.49
2023-03-26T03:58:37.899Z,8.40
2023-03-26T04:01:04.569Z,8.38
2023-03-26T04:03:33.585Z,8.42
2023-03-26T04:06:01.414Z,8.70
2023-03-26T04:08:27.840Z,8.80
2023-03-26T04:10:55.556Z,8.94
2023-03-26T04:13:21.908Z,8.58
2023-03-26T04:15:48.412Z,8.21
2023-03-26T04:18:14.969Z,8.82
2023-03-26T04:20:43.805Z,8.87
2023-03-26T04:23:10.193Z,8.82
2023-03-26T04:25:36.837Z,8.39
2023-03-26T04:28:06.890Z,8.90
2023-03-26T04:30:34.581Z,8.32
2023-03-26T04:33:01.539Z,8.91
2023-03-26T04:35:28.072Z,8.63
2023-03-26T04:37:54.532Z,8.85
2023-03-26T04:40:21.944Z,9.15
2023-03-26T04:42:48.326Z,9.06
2023-03-26T04:45:18.400Z,9.20
2023-03-26T04:47:44.867Z,9.40
2023-03-26T04:50:11.949Z,9.26
2023-03-26T04:52:38.598Z,9.34
2023-03-26T04:55:07.502Z,8.77
2023-03-26T04:57:39.172Z,9.47
2023-03-26T05:00:07.327Z,9.30
2023-03-26T05:02:35.063Z,9.03
2023-03-26T05:05:01.470Z,9.34
2023-03-26T05:07:27.814Z,9.28
2023-03-26T05:09:54.190Z,9.19
2023-03-26T05:12:20.569Z,9.22
2023-03-26T05:14:46.899Z,9.21
2023-03-26T05:17:14.936Z,9.18
2023-03-26T05:19:42.656Z,9.00
2023-03-26T05:22:09.021Z,8.67
2023-03-26T05:24:35.427Z,8.90
2023-03-26T05:27:01.818Z,8.87
2023-03-26T05:29:28.190Z,8.93
2023-03-26T05:31:54.534Z,8.51
2023-03-26T05:34:21.399Z,9.04
2023-03-26T05:36:49.089Z,9.28
2023-03-26T05:39:15.451Z,9.05
2023-03-26T05:41:41.838Z,8.83
2023-03-26T05:44:08.240Z,9.29
2023-03-26T05:46:34.763Z,9.28
2023-03-26T05:49:01.178Z,9.17
2023-03-26T05:51:27.541Z,9.49
2023-03-26T05:53:55.242Z,9.21
2023-03-26T05:56:21.595Z,9.03
2023-03-26T05:58:47.964Z,9.31
2023-03-26T06:01:14.454Z,9.24
2023-03-26T06:03:40.913Z,9.20
2023-03-26T06:06:08.775Z,9.14
2023-03-26T06:08:35.167Z,9.31
2023-03-26T06:11:05.145Z,9.27
2023-03-26T06:13:31.544Z,9.47
2023-03-26T06:15:57.942Z,9.38
2023-03-26T06:18:24.780Z,9.48
2023-03-26T06:20:51.416Z,9.55
2023-03-26T06:23:18.219Z,9.59
2023-03-26T06:25:45.100Z,9.09
2023-03-26T06:28:12.909Z,9.56
2023-03-26T06:30:39.335Z,9.73
2023-03-26T06:33:05.889Z,9.78
2023-03-26T06:35:32.633Z,9.31
2023-03-26T06:37:59.088Z,9.57
2023-03-26T06:40:25.986Z,9.76
2023-03-26T06:43:08.699Z,9.68
2023-03-26T06:45:38.301Z,9.59
2023-03-26T06:48:05.322Z,10.13
2023-03-26T06:50:31.802Z,10.18
2023-03-26T06:52:58.780Z,10.21
2023-03-26T06:55:25.773Z,10.07
2023-03-26T06:57:53.455Z,9.70
2023-03-26T07:00:20.599Z,10.46
2023-03-26T07:02:48.329Z,10.59
2023-03-26T07:05:14.868Z,10.36
2023-03-26T07:07:46.122Z,10.62
2023-03-26T07:10:13.108Z,10.56
2023-03-26T07:12:39.476Z,10.05
2023-03-26T07:15:07.200Z,10.51
2023-03-26T07:17:33.627Z,10.45
2023-03-26T07:20:01.366Z,10.64
2023-03-26T07:22:28.396Z,10.89
2023-03-26T07:24:55.465Z,11.31
2023-03-26T07:27:34.929Z,11.33
2023-03-26T07:30:06.184Z,11.62
2023-03-26T07:32:40.114Z,11.82
2023-03-26T07:35:16.440Z,11.38
2023-03-26T07:37:52.865Z,11.28
2023-03-26T07:40:36.171Z,11.53
2023-03-26T07:43:12.476Z,11.32
2023-03-26T07:45:40.737Z,11.37
2023-03-26T07:48:15.250Z,11.72
2023-03-26T07:50:44.025Z,11.84
2023-03-26T07:53:10.968Z,11.81
2023-03-26T07:55:45.813Z,12.28
2023-03-26T07:58:28.432Z,12.71
2023-03-26T08:00:59.327Z,13.12
2023-03-26T08:03:36.160Z,12.57
2023-03-26T08:06:11.918Z,12.62
2023-03-26T08:08:45.095Z,12.28
2023-03-26T08:11:24.036Z,12.46
2023-03-26T08:14:03.720Z,11.99
2023-03-26T08:16:36.360Z,12.32
2023-03-26T08:19:11.127Z,12.63
2023-03-26T08:21:44.690Z,12.37
2023-03-26T08:24:19.937Z,13.18
2023-03-26T08:26:58.416Z,12.02
2023-03-26T08:29:31.730Z,12.79
2023-03-26T08:31:59.291Z,12.93
2023-03-26T08:34:25.790Z,13.31
2023-03-26T08:36:53.478Z,11.99
2023-03-26T08:39:20.221Z,12.82
2023-03-26T08:42:07.302Z,12.44
2023-03-26T08:44:57.790Z,13.17
2023-03-26T08:47:51.489Z,13.31
2023-03-26T08:50:45.861Z,13.16
2023-03-26T08:53:30.027Z,13.37
2023-03-26T08:56:01.070Z,13.36
2023-03-26T08:59:05.342Z,12.75
2023-03-26T09:02:02.451Z,13.40
2023-03-26T09:05:04.525Z,12.64
2023-03-26T09:08:03.160Z,12.60
2023-03-26T09:10:49.866Z,12.50
2023-03-26T09:13:45.804Z,12.66
2023-03-26T09:16:38.620Z,13.51
2023-03-26T09:19:35.038Z,12.63
2023-03-26T09:22:33.181Z,12.49
2023-03-26T09:25:24.909Z,12.37
2023-03-26T09:28:20.880Z,12.82
2023-03-26T09:31:10.817Z,13.32
2023-03-26T09:34:09.189Z,12.86
2023-03-26T09:36:53.821Z,12.23
2023-03-26T09:39:34.062Z,12.66
2023-03-26T09:42:09.476Z,13.41
2023-03-26T09:45:13.479Z,13.30
2023-03-26T09:47:54.546Z,13.52
2023-03-26T09:50:29.943Z,12.95
2023-03-26T09:53:08.647Z,12.99
2023-03-26T09:55:54.057Z,12.91
2023-03-26T09:58:41.810Z,12.39
2023-03-26T10:01:18.487Z,13.40
2023-03-26T10:04:00.506Z,13.10
2023-03-26T10:06:36.432Z,13.57
2023-03-26T10:09:17.676Z,13.97
2023-03-26T10:12:02.126Z,13.32
2023-03-26T10:14:35.419Z,13.49
2023-03-26T10:17:19.872Z,13.94
2023-03-26T10:19:57.794Z,13.67
2023-03-26T10:22:40.100Z,13.67
2023-03-26T10:25:27.798Z,12.74
2023-03-26T10:28:05.547Z,13.81
2023-03-26T10:30:44.703Z,14.25
2023-03-26T10:33:24.002Z,14.32
2023-03-26T10:36:02.126Z,14.53
2023-03-26T10:38:39.335Z,13.17
2023-03-26T10:41:12.900Z,14.42
2023-03-26T10:44:09.332Z,13.24
2023-03-26T10:47:03.013Z,14.15
2023-03-26T10:49:59.802Z,14.33
2023-03-26T10:52:34.312Z,14.14
2023-03-26T10:55:10.070Z,14.01
2023-03-26T10:57:43.915Z,13.77
2023-03-26T11:00:17.301Z,14.15
2023-03-26T11:02:54.917Z,14.41
2023-03-26T11:05:43.483Z,13.88
2023-03-26T11:08:14.946Z,14.09
2023-03-26T11:10:49.637Z,13.25
2023-03-26T11:13:24.390Z,13.91
2023-03-26T11:15:56.665Z,14.23
2023-03-26T11:18:28.783Z,13.58
2023-03-26T11:21:19.316Z,13.90
2023-03-26T11:24:05.482Z,14.17
2023-03-26T11:26:42.810Z,14.68
2023-03-26T11:29:32.803Z,12.80
2023-03-26T11:32:05.831Z,13.98
2023-03-26T11:34:35.850Z,14.52
2023-03-26T11:37:06.520Z,14.54
2023-03-26T11:39:41.417Z,15.08
2023-03-26T11:42:10.907Z,15.13
2023-03-26T11:44:39.864Z,14.67
2023-03-26T11:47:10.517Z,14.35
2023-03-26T11:49:38.250Z,14.63
2023-03-26T11:52:05.951Z,14.59
2023-03-26T11:54:32.531Z,14.87
2023-03-26T11:57:04.389Z,14.81
2023-03-26T11:59:49.028Z,14.30
2023-03-26T12:02:27.662Z,14.75
2023-03-26T12:05:10.528Z,14.84
2023-03-26T12:07:45.340Z,14.77
2023-03-26T12:10:22.690Z,13.77
2023-03-26T12:12:49.123Z,14.26
2023-03-26T12:15:17.339Z,14.43
2023-03-26T12:17:43.805Z,14.30
2023-03-26T12:20:31.692Z,14.58
2023-03-26T12:23:01.314Z,14.45
2023-03-26T12:25:30.232Z,14.36
2023-03-26T12:27:59.611Z,13.40
2023-03-26T12:30:27.493Z,14.10
2023-03-26T12:32:57.860Z,14.03
2023-03-26T12:35:26.724Z,13.83
2023-03-26T12:37:54.510Z,13.67
2023-03-26T12:40:30.977Z,14.72
2023-03-26T12:44:56.099Z,14.67
2023-03-26T12:47:56.432Z,14.25
2023-03-26T12:48:37.281Z,13.67
2023-03-26T12:51:15.114Z,14.24
2023-03-26T12:53:58.168Z,14.12
2023-03-26T12:56:30.471Z,14.38
2023-03-26T12:59:21.341Z,14.80
2023-03-26T13:01:55.773Z,14.31
2023-03-26T13:04:37.579Z,13.97
2023-03-26T13:07:16.548Z,14.64
2023-03-26T13:09:56.847Z,14.60
2023-03-26T13:12:35.134Z,14.84
2023-03-26T13:15:16.674Z,14.56
2023-03-26T13:17:53.730Z,14.80
2023-03-26T13:20:26.865Z,14.35
2023-03-26T13:23:02.344Z,14.71
2023-03-26T13:25:38.668Z,14.69
2023-03-26T13:28:18.742Z,13.99
2023-03-26T13:30:51.756Z,14.61
2023-03-26T13:33:30.816Z,14.17
2023-03-26T13:36:21.822Z,12.84
2023-03-26T13:39:12.131Z,13.06
2023-03-26T13:41:52.506Z,13.51
2023-03-26T13:44:32.204Z,14.00
2023-03-26T13:47:04.184Z,13.03
2023-03-26T13:49:37.274Z,13.50
2023-03-26T13:52:08.007Z,13.67
2023-03-26T13:54:40.634Z,13.64
2023-03-26T13:57:11.746Z,13.45
2023-03-26T13:59:47.095Z,13.89
2023-03-26T14:02:23.015Z,13.67
2023-03-26T14:04:54.015Z,13.04
2023-03-26T14:07:25.209Z,13.49
2023-03-26T14:09:54.376Z,13.73
2023-03-26T14:12:40.849Z,13.39
2023-03-26T14:15:16.001Z,13.38
2023-03-26T14:17:48.345Z,12.84
2023-03-26T14:20:35.009Z,13.16
2023-03-26T14:23:22.216Z,13.17
2023-03-26T14:26:08.345Z,12.35
2023-03-26T14:28:58.212Z,13.30
2023-03-26T14:31:29.596Z,13.17
2023-03-26T14:34:11.929Z,13.38
2023-03-26T14:36:58.262Z,13.57
2023-03-26T14:39:43.395Z,13.61
2023-03-26T14:42:18.866Z,13.46
2023-03-26T14:45:16.853Z,13.62
2023-03-26T14:47:49.432Z,13.66
2023-03-26T14:50:49.089Z,13.27
2023-03-26T14:53:25.876Z,13.65
2023-03-26T14:56:10.184Z,12.95
2023-03-26T14:59:08.500Z,13.00
2023-03-26T15:02:09.727Z,13.33
2023-03-26T15:05:12.848Z,13.71
2023-03-26T15:08:01.470Z,13.24
2023-03-26T15:11:01.221Z,13.18
2023-03-26T15:13:51.415Z,12.86
2023-03-26T15:16:43.303Z,12.98
2023-03-26T15:19:40.320Z,13.05
2023-03-26T15:22:48.372Z,13.23
2023-03-26T15:25:42.381Z,12.63
2023-03-26T15:28:57.870Z,12.72
2023-03-26T15:31:41.779Z,12.81
2023-03-26T15:34:16.538Z,12.50
2023-03-26T15:37:24.353Z,12.56
2023-03-26T15:40:00.530Z,12.44
2023-03-26T15:42:38.302Z,12.62
2023-03-26T15:45:29.508Z,12.45
2023-03-26T15:48:13.889Z,12.59
2023-03-26T15:50:51.498Z,12.77
2023-03-26T15:53:28.724Z,12.61
2023-03-26T15:56:07.707Z,12.31
2023-03-26T15:58:45.847Z,12.07
2023-03-26T16:01:21.527Z,12.05
2023-03-26T16:03:57.797Z,11.85
2023-03-26T16:06:30.498Z,12.15
2023-03-26T16:09:24.036Z,12.23
2023-03-26T16:11:53.848Z,12.21
2023-03-26T16:14:24.343Z,12.23
2023-03-26T16:16:54.325Z,12.37
2023-03-26T16:19:49.692Z,12.05
2023-03-26T16:22:42.632Z,12.27
2023-03-26T16:25:26.937Z,11.69
2023-03-26T16:28:34.960Z,11.82
2023-03-26T16:31:36.619Z,11.90
2023-03-26T16:34:26.552Z,11.83
2023-03-26T16:36:53.716Z,11.86
2023-03-26T16:39:24.283Z,11.64
2023-03-26T16:42:06.242Z,11.53
2023-03-26T16:44:50.281Z,11.62
2023-03-26T16:47:24.302Z,11.20
2023-03-26T16:50:08.458Z,11.46
2023-03-26T16:52:44.110Z,11.58
2023-03-26T16:55:21.410Z,11.58
2023-03-26T16:57:55.002Z,11.66
2023-03-26T17:00:41.008Z,11.65
2023-03-26T17:03:27.404Z,10.99
2023-03-26T17:06:04.236Z,11.05
2023-03-26T17:08:39.295Z,11.54
2023-03-26T17:11:18.263Z,11.21
2023-03-26T17:13:51.223Z,11.24
2023-03-26T17:16:23.666Z,10.94
2023-03-26T17:18:58.810Z,11.00
2023-03-26T17:21:46.015Z,11.20
2023-03-26T17:24:23.372Z,11.21
2023-03-26T17:26:59.048Z,11.48
2023-03-26T17:29:37.777Z,11.14
2023-03-26T17:32:07.019Z,10.77
2023-03-26T17:34:41.880Z,10.92
2023-03-26T17:37:10.752Z,11.03
2023-03-26T17:40:36.899Z,10.78
2023-03-26T17:43:09.048Z,10.46
2023-03-26T17:45:37.090Z,10.61
2023-03-26T17:48:09.872Z,10.55
2023-03-26T17:50:41.596Z,10.85
2023-03-26T17:53:17.176Z,10.59
2023-03-26T17:55:45.487Z,10.69
2023-03-26T17:58:23.566Z,10.35
2023-03-26T18:00:52.895Z,10.49
2023-03-26T18:03:23.807Z,10.27
2023-03-26T18:06:05.000Z,10.30
2023-03-26T18:08:53.724Z,10.41
2023-03-26T18:11:35.075Z,10.27
2023-03-26T18:14:24.231Z,10.49
2023-03-26T18:16:53.066Z,10.32
2023-03-26T18:19:21.911Z,10.18
2023-03-26T18:21:51.882Z,10.36
2023-03-26T18:24:23.447Z,9.92
2023-03-26T18:26:55.950Z,10.28
2023-03-26T18:29:24.093Z,10.22
2023-03-26T18:31:54.810Z,10.19
2023-03-26T18:34:22.089Z,9.89
2023-03-26T18:37:05.370Z,10.00
2023-03-26T18:39:31.732Z,9.58
2023-03-26T18:41:58.210Z,10.11
2023-03-26T18:44:24.784Z,9.90
2023-03-26T18:46:52.652Z,9.83
2023-03-26T18:49:20.415Z,9.51
2023-03-26T18:51:56.729Z,9.84
2023-03-26T18:54:32.617Z,9.88
2023-03-26T18:57:15.433Z,9.90
2023-03-26T18:59:43.060Z,9.70
2023-03-26T19:02:12.775Z,9.57
2023-03-26T19:04:41.757Z,8.84
2023-03-26T19:07:14.824Z,9.38
2023-03-26T19:09:43.256Z,9.39
2023-03-26T19:12:17.367Z,8.85
2023-03-26T19:15:02.108Z,8.91
2023-03-26T19:17:32.699Z,8.04
2023-03-26T19:19:59.162Z,8.80
2023-03-26T19:22:26.165Z,8.68
2023-03-26T19:24:59.029Z,8.80
2023-03-26T19:27:25.762Z,9.11
2023-03-26T19:29:52.881Z,8.66
2023-03-26T19:32:20.864Z,8.30
2023-03-26T19:34:48.206Z,8.40
2023-03-26T19:37:20.605Z,7.90
2023-03-26T19:39:49.825Z,8.07
2023-03-26T19:42:21.396Z,7.63
2023-03-26T19:44:47.861Z,8.04
2023-03-26T19:47:17.346Z,8.28
2023-03-26T19:49:50.780Z,8.37
2023-03-26T19:52:21.609Z,8.54
2023-03-26T19:55:00.429Z,8.21
2023-03-26T19:57:30.265Z,7.86
2023-03-26T19:59:56.671Z,7.63
2023-03-26T20:02:23.170Z,7.46
2023-03-26T20:04:50.152Z,7.45
2023-03-26T20:07:18.405Z,7.76
2023-03-26T20:09:44.934Z,7.64
2023-03-26T20:12:11.991Z,7.61
2023-03-26T20:14:39.926Z,8.03
2023-03-26T20:17:12.755Z,7.31
2023-03-26T20:19:39.138Z,7.54
2023-03-26T20:22:07.310Z,7.34
2023-03-26T20:24:34.493Z,7.72
2023-03-26T20:27:00.866Z,7.60
2023-03-26T20:29:27.232Z,7.84
2023-03-26T20:31:55.155Z,7.96
2023-03-26T20:34:23.002Z,7.75
2023-03-26T20:36:50.240Z,7.83
2023-03-26T20:39:16.927Z,6.95
2023-03-26T20:41:46.616Z,7.56
2023-03-26T20:44:14.560Z,7.20
2023-03-26T20:46:41.707Z,7.42
2023-03-26T20:49:09.629Z,7.27
2023-03-26T20:51:36.256Z,7.41
2023-03-26T20:54:02.615Z,7.42
2023-03-26T20:56:28.980Z,7.48
2023-03-26T20:59:09.870Z,7.29
2023-03-26T21:01:37.593Z,8.10
2023-03-26T21:04:04.179Z,8.00
2023-03-26T21:06:31.995Z,8.48
2023-03-26T21:08:58.893Z,8.39
2023-03-26T21:11:33.130Z,7.52
2023-03-26T21:14:06.359Z,7.95
2023-03-26T21:16:33.702Z,7.71
2023-03-26T21:19:00.489Z,7.50
2023-03-26T21:21:45.543Z,7.54
2023-03-26T21:24:21.298Z,7.67
2023-03-26T21:26:55.851Z,7.38
2023-03-26T21:29:22.750Z,7.74
2023-03-26T21:31:51.063Z,7.33
2023-03-26T21:34:19.615Z,7.63
2023-03-26T21:36:48.197Z,7.73
2023-03-26T21:39:15.376Z,6.98
2023-03-26T21:41:46.729Z,7.32
2023-03-26T21:44:13.129Z,7.32
2023-03-26T21:46:42.008Z,7.36
2023-03-26T21:49:08.885Z,7.54
2023-03-26T21:51:36.089Z,7.71
2023-03-26T21:54:05.409Z,7.62
2023-03-26T21:56:45.000Z,7.01
2023-03-26T21:59:19.150Z,7.33
2023-03-26T22:01:52.972Z,7.42
2023-03-26T22:04:25.680Z,7.12
2023-03-26T22:06:57.055Z,7.02
2023-03-26T22:09:33.852Z,7.29
2023-03-26T22:12:02.989Z,7.27
2023-03-26T22:14:29.344Z,7.20
2023-03-26T22:16:55.714Z,7.45
2023-03-26T22:19:22.169Z,7.41
2023-03-26T22:21:48.577Z,7.57
2023-03-26T22:24:14.929Z,7.63
2023-03-26T22:26:42.700Z,7.72
2023-03-26T22:29:09.094Z,7.68
2023-03-26T22:31:37.851Z,7.28
2023-03-26T22:34:04.659Z,7.14
2023-03-26T22:36:31.032Z,7.55
2023-03-26T22:38:58.267Z,7.00
2023-03-26T22:41:25.071Z,6.60
2023-03-26T22:43:54.944Z,6.97
2023-03-26T22:46:22.315Z,7.26
2023-03-26T22:48:48.847Z,7.10
2023-03-26T22:51:15.716Z,6.60
2023-03-26T22:53:42.090Z,7.05
2023-03-26T22:56:09.449Z,7.29
2023-03-26T22:58:35.867Z,7.26
2023-03-26T23:01:07.945Z,7.43
2023-03-26T23:03:35.723Z,7.38
2023-03-26T23:06:04.976Z,7.46
2023-03-26T23:08:32.648Z,7.43
2023-03-26T23:10:59.084Z,7.14
2023-03-26T23:13:26.017Z,7.22
2023-03-26T23:15:53.634Z,7.39
2023-03-26T23:18:22.628Z,7.38
2023-03-26T23:20:49.797Z,7.38
2023-03-26T23:23:16.129Z,7.46
2023-03-26T23:25:44.403Z,7.54
2023-03-26T23:28:10.740Z,7.55
2023-03-26T23:30:37.096Z,7.47
2023-03-26T23:33:03.680Z,7.60
2023-03-26T23:35:31.451Z,7.54
2023-03-26T23:37:57.797Z,7.05
2023-03-26T23:40:24.175Z,6.93
2023-03-26T23:42:50.535Z,6.57
2023-03-26T23:45:17.570Z,6.97
2023-03-26T23:47:44.001Z,7.05
2023-03-26T23:50:10.999Z,7.09
2023-03-26T23:52:38.687Z,7.16
2023-03-26T23:55:05.922Z,7.10
2023-03-26T23:57:32.319Z,6.85
2023-03-26T23:59:58.681Z,6.42
